sensor_id;sensor_type;location;lat;lon;timestamp;temperature;humidity
21019;DHT22;10667;51.056;3.732;2023-02-12T00:00:32;10.60;99.90
21019;DHT22;10667;51.056;3.732;2023-02-12T00:02:57;10.60;99.90
21019;DHT22;10667;51.056;3.732;2023-02-12T00:05:23;10.60;99.90
21019;DHT22;10667;51.056;3.732;2023-02-12T00:07:49;10.70;99.90
21019;DHT22;10667;51.056;3.732;2023-02-12T00:10:15;10.70;99.90
21019;DHT22;10667;51.056;3.732;2023-02-12T00:12:41;10.70;99.90
21019;DHT22;10667;51.056;3.732;2023-02-12T00:15:07;10.70;99.90
21019;DHT22;10667;51.056;3.732;2023-02-12T00:17:33;10.60;99.90
21019;DHT22;10667;51.056;3.732;2023-02-12T00:19:59;10.60;99.90
21019;DHT22;10667;51.056;3.732;2023-02-12T00:22:24;10.50;99.90
21019;DHT22;10667;51.056;3.732;2023-02-12T00:24:50;10.60;99.90
21019;DHT22;10667;51.056;3.732;2023-02-12T00:27:16;10.60;99.90
21019;DHT22;10667;51.056;3.732;2023-02-12T00:29:41;10.50;99.90
21019;DHT22;10667;51.056;3.732;2023-02-12T00:32:07;10.50;99.90
21019;DHT22;10667;51.056;3.732;2023-02-12T00:34:33;10.50;99.90
21019;DHT22;10667;51.056;3.732;2023-02-12T00:36:58;10.50;99.90
21019;DHT22;10667;51.056;3.732;2023-02-12T00:39:24;10.60;99.90
21019;DHT22;10667;51.056;3.732;2023-02-12T00:41:50;10.50;99.90
21019;DHT22;10667;51.056;3.732;2023-02-12T00:44:15;10.50;99.90
21019;DHT22;10667;51.056;3.732;2023-02-12T00:46:41;10.70;99.90
21019;DHT22;10667;51.056;3.732;2023-02-12T00:49:07;10.60;99.90
21019;DHT22;10667;51.056;3.732;2023-02-12T00:51:32;10.80;99.90
21019;DHT22;10667;51.056;3.732;2023-02-12T00:53:58;10.70;99.90
21019;DHT22;10667;51.056;3.732;2023-02-12T00:56:24;10.60;99.90
21019;DHT22;10667;51.056;3.732;2023-02-12T00:58:49;10.60;99.90
21019;DHT22;10667;51.056;3.732;2023-02-12T01:01:16;10.60;99.90
21019;DHT22;10667;51.056;3.732;2023-02-12T01:03:42;10.60;99.90
21019;DHT22;10667;51.056;3.732;2023-02-12T01:06:07;10.60;99.90
21019;DHT22;10667;51.056;3.732;2023-02-12T01:08:33;10.60;99.90
21019;DHT22;10667;51.056;3.732;2023-02-12T01:11:01;10.60;99.90
21019;DHT22;10667;51.056;3.732;2023-02-12T01:13:28;10.60;99.90
21019;DHT22;10667;51.056;3.732;2023-02-12T01:16:24;10.50;99.90
21019;DHT22;10667;51.056;3.732;2023-02-12T01:18:51;10.50;99.90
21019;DHT22;10667;51.056;3.732;2023-02-12T01:21:20;10.60;99.90
21019;DHT22;10667;51.056;3.732;2023-02-12T01:23:46;10.60;99.90
21019;DHT22;10667;51.056;3.732;2023-02-12T01:26:13;10.60;99.90
21019;DHT22;10667;51.056;3.732;2023-02-12T01:28:40;10.60;99.90
21019;DHT22;10667;51.056;3.732;2023-02-12T01:31:18;10.50;99.90
21019;DHT22;10667;51.056;3.732;2023-02-12T01:33:47;10.50;99.90
21019;DHT22;10667;51.056;3.732;2023-02-12T01:36:13;10.50;99.90
21019;DHT22;10667;51.056;3.732;2023-02-12T01:38:39;10.50;99.90
21019;DHT22;10667;51.056;3.732;2023-02-12T01:41:17;10.60;99.90
21019;DHT22;10667;51.056;3.732;2023-02-12T01:43:43;10.60;99.90
21019;DHT22;10667;51.056;3.732;2023-02-12T01:46:12;10.50;99.90
21019;DHT22;10667;51.056;3.732;2023-02-12T01:48:41;10.50;99.90
21019;DHT22;10667;51.056;3.732;2023-02-12T01:51:16;10.50;99.90
21019;DHT22;10667;51.056;3.732;2023-02-12T01:53:48;10.50;99.90
21019;DHT22;10667;51.056;3.732;2023-02-12T01:56:15;10.50;99.90
21019;DHT22;10667;51.056;3.732;2023-02-12T01:58:42;10.50;99.90
21019;DHT22;10667;51.056;3.732;2023-02-12T02:01:14;10.50;99.90
21019;DHT22;10667;51.056;3.732;2023-02-12T02:03:44;10.50;99.90
21019;DHT22;10667;51.056;3.732;2023-02-12T02:06:14;10.50;99.90
21019;DHT22;10667;51.056;3.732;2023-02-12T02:08:41;10.40;99.90
21019;DHT22;10667;51.056;3.732;2023-02-12T02:11:07;10.50;99.90
21019;DHT22;10667;51.056;3.732;2023-02-12T02:13:52;10.50;99.90
21019;DHT22;10667;51.056;3.732;2023-02-12T02:16:41;10.40;99.90
21019;DHT22;10667;51.056;3.732;2023-02-12T02:19:34;10.40;99.90
21019;DHT22;10667;51.056;3.732;2023-02-12T02:25:22;10.40;99.90
21019;DHT22;10667;51.056;3.732;2023-02-12T02:31:02;10.40;99.90
21019;DHT22;10667;51.056;3.732;2023-02-12T02:38:46;10.50;99.90
21019;DHT22;10667;51.056;3.732;2023-02-12T02:41:15;10.50;99.90
21019;DHT22;10667;51.056;3.732;2023-02-12T02:43:47;10.50;99.90
21019;DHT22;10667;51.056;3.732;2023-02-12T02:46:19;10.50;99.90
21019;DHT22;10667;51.056;3.732;2023-02-12T02:49:01;10.40;99.90
21019;DHT22;10667;51.056;3.732;2023-02-12T02:51:33;10.40;99.90
21019;DHT22;10667;51.056;3.732;2023-02-12T02:55:06;10.40;99.90
21019;DHT22;10667;51.056;3.732;2023-02-12T02:57:07;10.30;99.90
21019;DHT22;10667;51.056;3.732;2023-02-12T02:59:36;10.30;99.90
21019;DHT22;10667;51.056;3.732;2023-02-12T03:02:20;10.30;99.90
21019;DHT22;10667;51.056;3.732;2023-02-12T03:04:51;10.30;99.90
21019;DHT22;10667;51.056;3.732;2023-02-12T03:07:28;10.30;99.90
21019;DHT22;10667;51.056;3.732;2023-02-12T03:10:22;10.20;99.90
21019;DHT22;10667;51.056;3.732;2023-02-12T03:18:05;10.30;99.90
21019;DHT22;10667;51.056;3.732;2023-02-12T03:20:35;10.30;99.90
21019;DHT22;10667;51.056;3.732;2023-02-12T03:23:16;10.30;99.90
21019;DHT22;10667;51.056;3.732;2023-02-12T03:25:54;10.30;99.90
21019;DHT22;10667;51.056;3.732;2023-02-12T03:28:29;10.30;99.90
21019;DHT22;10667;51.056;3.732;2023-02-12T03:36:34;10.30;99.90
21019;DHT22;10667;51.056;3.732;2023-02-12T03:47:34;10.20;99.90
21019;DHT22;10667;51.056;3.732;2023-02-12T03:50:19;10.20;99.90
21019;DHT22;10667;51.056;3.732;2023-02-12T03:52:46;10.30;99.90
21019;DHT22;10667;51.056;3.732;2023-02-12T03:55:14;10.20;99.90
21019;DHT22;10667;51.056;3.732;2023-02-12T03:57:43;10.30;99.90
21019;DHT22;10667;51.056;3.732;2023-02-12T04:00:15;10.30;99.90
21019;DHT22;10667;51.056;3.732;2023-02-12T04:02:42;10.30;99.90
21019;DHT22;10667;51.056;3.732;2023-02-12T04:05:19;10.30;99.90
21019;DHT22;10667;51.056;3.732;2023-02-12T04:07:45;10.30;99.90
21019;DHT22;10667;51.056;3.732;2023-02-12T04:10:11;10.30;99.90
21019;DHT22;10667;51.056;3.732;2023-02-12T04:12:56;10.20;99.90
21019;DHT22;10667;51.056;3.732;2023-02-12T04:23:53;10.30;99.90
21019;DHT22;10667;51.056;3.732;2023-02-12T04:34:21;10.20;99.90
21019;DHT22;10667;51.056;3.732;2023-02-12T04:37:01;10.10;99.90
21019;DHT22;10667;51.056;3.732;2023-02-12T04:39:31;10.10;99.90
21019;DHT22;10667;51.056;3.732;2023-02-12T04:41:59;10.10;99.90
21019;DHT22;10667;51.056;3.732;2023-02-12T04:44:31;10.10;99.90
21019;DHT22;10667;51.056;3.732;2023-02-12T04:46:57;10.10;99.90
21019;DHT22;10667;51.056;3.732;2023-02-12T04:49:23;10.10;99.90
21019;DHT22;10667;51.056;3.732;2023-02-12T04:51:49;10.20;99.90
21019;DHT22;10667;51.056;3.732;2023-02-12T04:54:17;10.20;99.90
21019;DHT22;10667;51.056;3.732;2023-02-12T04:56:43;10.20;99.90
21019;DHT22;10667;51.056;3.732;2023-02-12T04:59:09;10.20;99.90
21019;DHT22;10667;51.056;3.732;2023-02-12T05:01:36;10.20;99.90
21019;DHT22;10667;51.056;3.732;2023-02-12T05:04:03;10.20;99.90
21019;DHT22;10667;51.056;3.732;2023-02-12T05:06:29;10.10;99.90
21019;DHT22;10667;51.056;3.732;2023-02-12T05:08:55;10.10;99.90
21019;DHT22;10667;51.056;3.732;2023-02-12T05:11:21;10.10;99.90
21019;DHT22;10667;51.056;3.732;2023-02-12T05:13:48;10.10;99.90
21019;DHT22;10667;51.056;3.732;2023-02-12T05:16:15;10.20;99.90
21019;DHT22;10667;51.056;3.732;2023-02-12T05:18:41;10.20;99.90
21019;DHT22;10667;51.056;3.732;2023-02-12T05:21:06;10.20;99.90
21019;DHT22;10667;51.056;3.732;2023-02-12T05:23:35;10.20;99.90
21019;DHT22;10667;51.056;3.732;2023-02-12T05:26:02;10.20;99.90
21019;DHT22;10667;51.056;3.732;2023-02-12T05:28:29;10.20;99.90
21019;DHT22;10667;51.056;3.732;2023-02-12T05:30:59;10.20;99.90
21019;DHT22;10667;51.056;3.732;2023-02-12T05:33:24;10.10;99.90
21019;DHT22;10667;51.056;3.732;2023-02-12T05:35:50;10.10;99.90
21019;DHT22;10667;51.056;3.732;2023-02-12T05:38:16;10.20;99.90
21019;DHT22;10667;51.056;3.732;2023-02-12T05:40:42;10.20;99.90
21019;DHT22;10667;51.056;3.732;2023-02-12T05:43:08;10.20;99.90
21019;DHT22;10667;51.056;3.732;2023-02-12T05:45:34;10.10;99.90
21019;DHT22;10667;51.056;3.732;2023-02-12T05:47:59;10.10;99.90
21019;DHT22;10667;51.056;3.732;2023-02-12T05:50:25;10.10;99.90
21019;DHT22;10667;51.056;3.732;2023-02-12T05:52:51;10.10;99.90
21019;DHT22;10667;51.056;3.732;2023-02-12T05:55:17;10.10;99.90
21019;DHT22;10667;51.056;3.732;2023-02-12T05:57:42;10.10;99.90
21019;DHT22;10667;51.056;3.732;2023-02-12T06:00:09;10.10;99.90
21019;DHT22;10667;51.056;3.732;2023-02-12T06:02:35;10.10;99.90
21019;DHT22;10667;51.056;3.732;2023-02-12T06:05:01;10.10;99.90
21019;DHT22;10667;51.056;3.732;2023-02-12T06:07:27;10.10;99.90
21019;DHT22;10667;51.056;3.732;2023-02-12T06:09:53;10.10;99.90
21019;DHT22;10667;51.056;3.732;2023-02-12T06:12:20;10.10;99.90
21019;DHT22;10667;51.056;3.732;2023-02-12T06:14:46;10.20;99.90
21019;DHT22;10667;51.056;3.732;2023-02-12T06:17:11;10.10;99.90
21019;DHT22;10667;51.056;3.732;2023-02-12T06:19:37;10.10;99.90
21019;DHT22;10667;51.056;3.732;2023-02-12T06:22:03;10.10;99.90
21019;DHT22;10667;51.056;3.732;2023-02-12T06:24:28;10.10;99.90
21019;DHT22;10667;51.056;3.732;2023-02-12T06:26:54;10.20;99.90
21019;DHT22;10667;51.056;3.732;2023-02-12T06:29:21;10.10;99.90
21019;DHT22;10667;51.056;3.732;2023-02-12T06:31:47;10.10;99.90
21019;DHT22;10667;51.056;3.732;2023-02-12T06:34:13;10.10;99.90
21019;DHT22;10667;51.056;3.732;2023-02-12T06:36:42;10.00;99.90
21019;DHT22;10667;51.056;3.732;2023-02-12T06:39:12;10.10;99.90
21019;DHT22;10667;51.056;3.732;2023-02-12T06:41:38;10.00;99.90
21019;DHT22;10667;51.056;3.732;2023-02-12T06:44:04;10.00;99.90
21019;DHT22;10667;51.056;3.732;2023-02-12T06:46:30;10.00;99.90
21019;DHT22;10667;51.056;3.732;2023-02-12T06:48:57;10.10;99.90
21019;DHT22;10667;51.056;3.732;2023-02-12T06:51:24;10.00;99.90
21019;DHT22;10667;51.056;3.732;2023-02-12T06:53:51;10.00;99.90
21019;DHT22;10667;51.056;3.732;2023-02-12T06:56:18;10.10;99.90
21019;DHT22;10667;51.056;3.732;2023-02-12T06:58:46;10.10;99.90
21019;DHT22;10667;51.056;3.732;2023-02-12T07:01:19;10.10;99.90
21019;DHT22;10667;51.056;3.732;2023-02-12T07:03:53;10.10;99.90
21019;DHT22;10667;51.056;3.732;2023-02-12T07:06:20;10.10;99.90
21019;DHT22;10667;51.056;3.732;2023-02-12T07:08:46;10.00;99.90
21019;DHT22;10667;51.056;3.732;2023-02-12T07:11:12;10.00;99.90
21019;DHT22;10667;51.056;3.732;2023-02-12T07:13:42;10.00;99.90
21019;DHT22;10667;51.056;3.732;2023-02-12T07:16:14;10.00;99.90
21019;DHT22;10667;51.056;3.732;2023-02-12T07:18:40;10.00;99.90
21019;DHT22;10667;51.056;3.732;2023-02-12T07:21:07;10.00;99.90
21019;DHT22;10667;51.056;3.732;2023-02-12T07:23:33;10.00;99.90
21019;DHT22;10667;51.056;3.732;2023-02-12T07:26:07;10.00;99.90
21019;DHT22;10667;51.056;3.732;2023-02-12T07:28:34;10.10;99.90
21019;DHT22;10667;51.056;3.732;2023-02-12T07:31:06;10.10;99.90
21019;DHT22;10667;51.056;3.732;2023-02-12T07:33:33;10.10;99.90
21019;DHT22;10667;51.056;3.732;2023-02-12T07:36:04;10.10;99.90
21019;DHT22;10667;51.056;3.732;2023-02-12T07:38:30;10.10;99.90
21019;DHT22;10667;51.056;3.732;2023-02-12T07:41:09;10.10;99.90
21019;DHT22;10667;51.056;3.732;2023-02-12T07:43:37;10.10;99.90
21019;DHT22;10667;51.056;3.732;2023-02-12T07:46:07;10.20;99.90
21019;DHT22;10667;51.056;3.732;2023-02-12T07:48:33;10.20;99.90
21019;DHT22;10667;51.056;3.732;2023-02-12T07:51:07;10.20;99.90
21019;DHT22;10667;51.056;3.732;2023-02-12T07:53:33;10.30;99.90
21019;DHT22;10667;51.056;3.732;2023-02-12T07:56:19;10.30;99.90
21019;DHT22;10667;51.056;3.732;2023-02-12T07:58:47;10.30;99.90
21019;DHT22;10667;51.056;3.732;2023-02-12T08:01:19;10.30;99.90
21019;DHT22;10667;51.056;3.732;2023-02-12T08:03:46;10.30;99.90
21019;DHT22;10667;51.056;3.732;2023-02-12T08:06:18;10.30;99.90
21019;DHT22;10667;51.056;3.732;2023-02-12T08:08:45;10.30;99.90
21019;DHT22;10667;51.056;3.732;2023-02-12T08:11:13;10.40;99.90
21019;DHT22;10667;51.056;3.732;2023-02-12T08:13:39;10.40;99.90
21019;DHT22;10667;51.056;3.732;2023-02-12T08:16:16;10.40;99.90
21019;DHT22;10667;51.056;3.732;2023-02-12T08:18:42;10.30;99.90
21019;DHT22;10667;51.056;3.732;2023-02-12T08:21:14;10.30;99.90
21019;DHT22;10667;51.056;3.732;2023-02-12T08:23:40;10.30;99.90
21019;DHT22;10667;51.056;3.732;2023-02-12T08:26:09;10.30;99.90
21019;DHT22;10667;51.056;3.732;2023-02-12T08:28:36;10.30;99.90
21019;DHT22;10667;51.056;3.732;2023-02-12T08:31:04;10.30;99.90
21019;DHT22;10667;51.056;3.732;2023-02-12T08:33:30;10.40;99.90
21019;DHT22;10667;51.056;3.732;2023-02-12T08:38:26;10.30;99.90
21019;DHT22;10667;51.056;3.732;2023-02-12T08:40:52;10.30;99.90
21019;DHT22;10667;51.056;3.732;2023-02-12T08:43:17;10.30;99.90
21019;DHT22;10667;51.056;3.732;2023-02-12T08:45:43;10.30;99.90
21019;DHT22;10667;51.056;3.732;2023-02-12T08:48:09;10.30;99.90
21019;DHT22;10667;51.056;3.732;2023-02-12T08:50:35;10.30;99.90
21019;DHT22;10667;51.056;3.732;2023-02-12T08:53:00;10.40;99.90
21019;DHT22;10667;51.056;3.732;2023-02-12T08:55:26;10.40;99.90
21019;DHT22;10667;51.056;3.732;2023-02-12T08:57:52;10.40;99.90
21019;DHT22;10667;51.056;3.732;2023-02-12T09:00:22;10.40;99.90
21019;DHT22;10667;51.056;3.732;2023-02-12T09:02:48;10.40;99.90
21019;DHT22;10667;51.056;3.732;2023-02-12T09:05:14;10.40;99.90
21019;DHT22;10667;51.056;3.732;2023-02-12T09:07:39;10.50;99.90
21019;DHT22;10667;51.056;3.732;2023-02-12T09:10:06;10.50;99.90
21019;DHT22;10667;51.056;3.732;2023-02-12T09:12:31;10.50;99.90
21019;DHT22;10667;51.056;3.732;2023-02-12T09:14:57;10.50;99.90
21019;DHT22;10667;51.056;3.732;2023-02-12T09:17:24;10.50;99.90
21019;DHT22;10667;51.056;3.732;2023-02-12T09:19:52;10.60;99.90
21019;DHT22;10667;51.056;3.732;2023-02-12T09:22:18;10.50;99.90
21019;DHT22;10667;51.056;3.732;2023-02-12T09:24:44;10.50;99.90
21019;DHT22;10667;51.056;3.732;2023-02-12T09:27:10;10.50;99.90
21019;DHT22;10667;51.056;3.732;2023-02-12T09:29:35;10.40;99.90
21019;DHT22;10667;51.056;3.732;2023-02-12T09:32:01;10.50;99.90
21019;DHT22;10667;51.056;3.732;2023-02-12T09:34:32;10.50;99.90
21019;DHT22;10667;51.056;3.732;2023-02-12T09:36:58;10.60;99.90
21019;DHT22;10667;51.056;3.732;2023-02-12T09:39:24;10.60;99.90
21019;DHT22;10667;51.056;3.732;2023-02-12T09:42:11;10.60;99.90
21019;DHT22;10667;51.056;3.732;2023-02-12T09:44:57;10.70;99.90
21019;DHT22;10667;51.056;3.732;2023-02-12T09:47:59;10.60;99.90
21019;DHT22;10667;51.056;3.732;2023-02-12T09:53:05;10.70;99.90
21019;DHT22;10667;51.056;3.732;2023-02-12T09:55:33;10.70;99.90
21019;DHT22;10667;51.056;3.732;2023-02-12T09:58:06;10.70;99.90
21019;DHT22;10667;51.056;3.732;2023-02-12T10:00:35;10.70;99.90
21019;DHT22;10667;51.056;3.732;2023-02-12T10:03:03;10.70;99.90
21019;DHT22;10667;51.056;3.732;2023-02-12T10:05:44;10.80;99.90
21019;DHT22;10667;51.056;3.732;2023-02-12T10:27:22;10.90;99.90
21019;DHT22;10667;51.056;3.732;2023-02-12T10:29:50;10.90;99.90
21019;DHT22;10667;51.056;3.732;2023-02-12T10:32:24;10.90;99.90
21019;DHT22;10667;51.056;3.732;2023-02-12T10:34:53;10.90;99.90
21019;DHT22;10667;51.056;3.732;2023-02-12T10:37:37;11.10;99.90
21019;DHT22;10667;51.056;3.732;2023-02-12T10:40:18;11.30;99.90
21019;DHT22;10667;51.056;3.732;2023-02-12T10:42:47;11.10;99.90
21019;DHT22;10667;51.056;3.732;2023-02-12T10:45:25;11.00;99.90
21019;DHT22;10667;51.056;3.732;2023-02-12T10:48:12;10.90;99.90
21019;DHT22;10667;51.056;3.732;2023-02-12T10:53:35;10.90;99.90
21019;DHT22;10667;51.056;3.732;2023-02-12T10:58:42;11.10;99.90
21019;DHT22;10667;51.056;3.732;2023-02-12T11:01:21;11.10;99.90
21019;DHT22;10667;51.056;3.732;2023-02-12T11:03:51;11.00;99.90
21019;DHT22;10667;51.056;3.732;2023-02-12T11:06:25;11.10;99.90
21019;DHT22;10667;51.056;3.732;2023-02-12T11:08:52;11.10;99.90
21019;DHT22;10667;51.056;3.732;2023-02-12T11:11:24;11.20;99.90
21019;DHT22;10667;51.056;3.732;2023-02-12T11:13:58;11.20;99.90
21019;DHT22;10667;51.056;3.732;2023-02-12T11:16:31;11.30;99.90
21019;DHT22;10667;51.056;3.732;2023-02-12T11:19:02;11.40;99.90
21019;DHT22;10667;51.056;3.732;2023-02-12T11:21:29;11.40;99.90
21019;DHT22;10667;51.056;3.732;2023-02-12T11:23:55;11.50;99.90
21019;DHT22;10667;51.056;3.732;2023-02-12T11:26:27;11.50;99.90
21019;DHT22;10667;51.056;3.732;2023-02-12T11:29:04;11.60;99.90
21019;DHT22;10667;51.056;3.732;2023-02-12T11:31:41;11.60;99.90
21019;DHT22;10667;51.056;3.732;2023-02-12T11:34:15;11.60;99.90
21019;DHT22;10667;51.056;3.732;2023-02-12T11:36:52;11.70;99.90
21019;DHT22;10667;51.056;3.732;2023-02-12T11:42:06;11.70;99.90
21019;DHT22;10667;51.056;3.732;2023-02-12T11:44:42;11.70;99.90
21019;DHT22;10667;51.056;3.732;2023-02-12T11:47:18;11.80;99.90
21019;DHT22;10667;51.056;3.732;2023-02-12T11:49:52;11.80;99.90
21019;DHT22;10667;51.056;3.732;2023-02-12T11:52:23;11.90;99.90
21019;DHT22;10667;51.056;3.732;2023-02-12T11:54:52;12.00;99.90
21019;DHT22;10667;51.056;3.732;2023-02-12T12:00:05;12.00;99.90
21019;DHT22;10667;51.056;3.732;2023-02-12T12:02:37;11.90;99.90
21019;DHT22;10667;51.056;3.732;2023-02-12T12:05:17;12.00;99.90
21019;DHT22;10667;51.056;3.732;2023-02-12T12:07:55;11.90;99.90
21019;DHT22;10667;51.056;3.732;2023-02-12T12:10:43;12.00;99.90
21019;DHT22;10667;51.056;3.732;2023-02-12T12:13:17;12.00;99.90
21019;DHT22;10667;51.056;3.732;2023-02-12T12:15:51;12.00;99.90
21019;DHT22;10667;51.056;3.732;2023-02-12T12:18:45;12.10;99.90
21019;DHT22;10667;51.056;3.732;2023-02-12T12:24:47;12.10;99.90
21019;DHT22;10667;51.056;3.732;2023-02-12T12:27:25;12.00;99.90
21019;DHT22;10667;51.056;3.732;2023-02-12T12:32:55;12.00;99.90
21019;DHT22;10667;51.056;3.732;2023-02-12T12:35:35;11.90;99.90
21019;DHT22;10667;51.056;3.732;2023-02-12T12:38:46;12.00;99.90
21019;DHT22;10667;51.056;3.732;2023-02-12T12:47:34;11.90;99.90
21019;DHT22;10667;51.056;3.732;2023-02-12T13:10:27;12.10;99.90
21019;DHT22;10667;51.056;3.732;2023-02-12T13:15:49;12.00;99.90
21019;DHT22;10667;51.056;3.732;2023-02-12T13:21:38;11.90;99.90
21019;DHT22;10667;51.056;3.732;2023-02-12T13:24:29;11.90;99.90
21019;DHT22;10667;51.056;3.732;2023-02-12T13:27:31;12.00;99.90
21019;DHT22;10667;51.056;3.732;2023-02-12T13:30:00;12.10;99.90
21019;DHT22;10667;51.056;3.732;2023-02-12T13:32:35;12.20;99.90
21019;DHT22;10667;51.056;3.732;2023-02-12T13:35:04;12.20;99.90
21019;DHT22;10667;51.056;3.732;2023-02-12T13:37:41;12.10;99.90
21019;DHT22;10667;51.056;3.732;2023-02-12T13:40:16;12.10;99.90
21019;DHT22;10667;51.056;3.732;2023-02-12T14:01:02;12.40;99.90
21019;DHT22;10667;51.056;3.732;2023-02-12T14:03:30;12.40;99.90
21019;DHT22;10667;51.056;3.732;2023-02-12T14:06:19;12.40;99.90
21019;DHT22;10667;51.056;3.732;2023-02-12T14:09:09;12.50;99.90
21019;DHT22;10667;51.056;3.732;2023-02-12T14:11:51;12.50;99.90
21019;DHT22;10667;51.056;3.732;2023-02-12T14:14:45;12.40;99.90
21019;DHT22;10667;51.056;3.732;2023-02-12T14:20:22;12.40;99.90
21019;DHT22;10667;51.056;3.732;2023-02-12T14:27:48;12.30;99.90
21019;DHT22;10667;51.056;3.732;2023-02-12T14:30:41;12.20;99.90
21019;DHT22;10667;51.056;3.732;2023-02-12T14:35:35;12.30;99.90
21019;DHT22;10667;51.056;3.732;2023-02-12T14:41:22;12.40;99.90
21019;DHT22;10667;51.056;3.732;2023-02-12T14:47:02;12.30;99.90
21019;DHT22;10667;51.056;3.732;2023-02-12T14:49:51;12.20;99.90
21019;DHT22;10667;51.056;3.732;2023-02-12T14:52:26;12.10;99.90
21019;DHT22;10667;51.056;3.732;2023-02-12T14:54:56;12.10;99.90
21019;DHT22;10667;51.056;3.732;2023-02-12T14:57:30;12.00;99.90
21019;DHT22;10667;51.056;3.732;2023-02-12T15:02:43;12.00;99.90
21019;DHT22;10667;51.056;3.732;2023-02-12T15:07:52;11.70;99.90
21019;DHT22;10667;51.056;3.732;2023-02-12T15:11:08;11.70;99.90
21019;DHT22;10667;51.056;3.732;2023-02-12T15:13:28;11.70;99.90
21019;DHT22;10667;51.056;3.732;2023-02-12T15:16:12;11.70;99.90
21019;DHT22;10667;51.056;3.732;2023-02-12T15:18:59;11.70;99.90
21019;DHT22;10667;51.056;3.732;2023-02-12T15:21:30;11.60;99.90
21019;DHT22;10667;51.056;3.732;2023-02-12T15:24:08;11.60;99.90
21019;DHT22;10667;51.056;3.732;2023-02-12T15:26:40;11.60;99.90
21019;DHT22;10667;51.056;3.732;2023-02-12T15:29:13;11.60;99.90
21019;DHT22;10667;51.056;3.732;2023-02-12T15:31:40;11.60;99.90
21019;DHT22;10667;51.056;3.732;2023-02-12T15:34:06;11.70;99.90
21019;DHT22;10667;51.056;3.732;2023-02-12T15:36:44;11.70;99.90
21019;DHT22;10667;51.056;3.732;2023-02-12T15:39:17;11.70;99.90
21019;DHT22;10667;51.056;3.732;2023-02-12T15:41:44;11.60;99.90
21019;DHT22;10667;51.056;3.732;2023-02-12T15:49:34;11.60;99.90
21019;DHT22;10667;51.056;3.732;2023-02-12T15:52:03;11.70;99.90
21019;DHT22;10667;51.056;3.732;2023-02-12T15:54:30;11.70;99.90
21019;DHT22;10667;51.056;3.732;2023-02-12T15:56:56;11.70;99.90
21019;DHT22;10667;51.056;3.732;2023-02-12T15:59:25;11.60;99.90
21019;DHT22;10667;51.056;3.732;2023-02-12T16:01:59;11.60;99.90
21019;DHT22;10667;51.056;3.732;2023-02-12T16:04:29;11.60;99.90
21019;DHT22;10667;51.056;3.732;2023-02-12T16:06:57;11.50;99.90
21019;DHT22;10667;51.056;3.732;2023-02-12T16:09:32;11.50;99.90
21019;DHT22;10667;51.056;3.732;2023-02-12T16:12:01;11.50;99.90
21019;DHT22;10667;51.056;3.732;2023-02-12T16:14:29;11.50;99.90
21019;DHT22;10667;51.056;3.732;2023-02-12T16:16:58;11.50;99.90
21019;DHT22;10667;51.056;3.732;2023-02-12T16:19:31;11.50;99.90
21019;DHT22;10667;51.056;3.732;2023-02-12T16:22:40;11.50;99.90
21019;DHT22;10667;51.056;3.732;2023-02-12T16:25:18;11.40;99.90
21019;DHT22;10667;51.056;3.732;2023-02-12T16:28:03;11.40;99.90
21019;DHT22;10667;51.056;3.732;2023-02-12T16:30:33;11.40;99.90
21019;DHT22;10667;51.056;3.732;2023-02-12T16:32:59;11.40;99.90
21019;DHT22;10667;51.056;3.732;2023-02-12T16:35:31;11.40;99.90
21019;DHT22;10667;51.056;3.732;2023-02-12T16:40:34;11.20;99.90
21019;DHT22;10667;51.056;3.732;2023-02-12T16:43:03;11.20;99.90
21019;DHT22;10667;51.056;3.732;2023-02-12T16:45:34;11.20;99.90
21019;DHT22;10667;51.056;3.732;2023-02-12T16:50:47;11.10;99.90
21019;DHT22;10667;51.056;3.732;2023-02-12T16:55:48;11.10;99.90
21019;DHT22;10667;51.056;3.732;2023-02-12T16:58:14;11.10;99.90
21019;DHT22;10667;51.056;3.732;2023-02-12T17:00:40;11.10;99.90
21019;DHT22;10667;51.056;3.732;2023-02-12T17:03:05;11.20;99.90
21019;DHT22;10667;51.056;3.732;2023-02-12T17:05:31;11.10;99.90
21019;DHT22;10667;51.056;3.732;2023-02-12T17:07:57;11.20;99.90
21019;DHT22;10667;51.056;3.732;2023-02-12T17:10:22;11.20;99.90
21019;DHT22;10667;51.056;3.732;2023-02-12T17:12:50;11.20;99.90
21019;DHT22;10667;51.056;3.732;2023-02-12T17:15:28;11.10;99.90
21019;DHT22;10667;51.056;3.732;2023-02-12T17:17:55;11.10;99.90
21019;DHT22;10667;51.056;3.732;2023-02-12T17:20:21;11.20;99.90
21019;DHT22;10667;51.056;3.732;2023-02-12T17:22:50;11.10;99.90
21019;DHT22;10667;51.056;3.732;2023-02-12T17:25:17;11.20;99.90
21019;DHT22;10667;51.056;3.732;2023-02-12T17:27:43;11.20;99.90
21019;DHT22;10667;51.056;3.732;2023-02-12T17:30:14;11.10;99.90
21019;DHT22;10667;51.056;3.732;2023-02-12T17:32:40;11.10;99.90
21019;DHT22;10667;51.056;3.732;2023-02-12T17:35:06;11.20;99.90
21019;DHT22;10667;51.056;3.732;2023-02-12T17:37:31;11.10;99.90
21019;DHT22;10667;51.056;3.732;2023-02-12T17:39:57;11.30;99.90
21019;DHT22;10667;51.056;3.732;2023-02-12T17:42:23;11.30;99.90
21019;DHT22;10667;51.056;3.732;2023-02-12T17:44:49;11.30;99.90
21019;DHT22;10667;51.056;3.732;2023-02-12T17:47:14;11.30;99.90
21019;DHT22;10667;51.056;3.732;2023-02-12T17:49:40;11.20;99.90
21019;DHT22;10667;51.056;3.732;2023-02-12T17:52:06;11.20;99.90
21019;DHT22;10667;51.056;3.732;2023-02-12T17:54:32;11.20;99.90
21019;DHT22;10667;51.056;3.732;2023-02-12T17:56:58;11.10;99.90
21019;DHT22;10667;51.056;3.732;2023-02-12T17:59:23;11.10;99.90
21019;DHT22;10667;51.056;3.732;2023-02-12T18:01:49;11.10;99.90
21019;DHT22;10667;51.056;3.732;2023-02-12T18:04:15;11.20;99.90
21019;DHT22;10667;51.056;3.732;2023-02-12T18:06:40;11.20;99.90
21019;DHT22;10667;51.056;3.732;2023-02-12T18:09:06;11.20;99.90
21019;DHT22;10667;51.056;3.732;2023-02-12T18:11:32;11.10;99.90
21019;DHT22;10667;51.056;3.732;2023-02-12T18:13:58;11.10;99.90
21019;DHT22;10667;51.056;3.732;2023-02-12T18:16:27;11.10;99.90
21019;DHT22;10667;51.056;3.732;2023-02-12T18:18:53;11.20;99.90
21019;DHT22;10667;51.056;3.732;2023-02-12T18:21:20;11.20;99.90
21019;DHT22;10667;51.056;3.732;2023-02-12T18:23:46;11.20;99.90
21019;DHT22;10667;51.056;3.732;2023-02-12T18:26:14;11.20;99.90
21019;DHT22;10667;51.056;3.732;2023-02-12T18:28:41;11.10;99.90
21019;DHT22;10667;51.056;3.732;2023-02-12T18:31:07;11.10;99.90
21019;DHT22;10667;51.056;3.732;2023-02-12T18:33:34;11.10;99.90
21019;DHT22;10667;51.056;3.732;2023-02-12T18:36:05;11.10;99.90
21019;DHT22;10667;51.056;3.732;2023-02-12T18:38:32;11.20;99.90
21019;DHT22;10667;51.056;3.732;2023-02-12T18:40:58;11.10;99.90
21019;DHT22;10667;51.056;3.732;2023-02-12T18:43:26;11.10;99.90
21019;DHT22;10667;51.056;3.732;2023-02-12T18:45:52;11.10;99.90